sensor_id;sensor_type;location;lat;lon;timestamp;temperature;humidity
322;DHT22;148;51.480;7.208;2022-08-21T00:01:55;21.50;71.50
322;DHT22;148;51.480;7.208;2022-08-21T00:04:22;21.50;71.50
322;DHT22;148;51.480;7.208;2022-08-21T00:06:48;21.50;71.50
322;DHT22;148;51.480;7.208;2022-08-21T00:09:14;21.50;71.40
322;DHT22;148;51.480;7.208;2022-08-21T00:11:40;21.50;71.40
322;DHT22;148;51.480;7.208;2022-08-21T00:14:08;21.50;71.50
322;DHT22;148;51.480;7.208;2022-08-21T00:16:34;21.50;71.50
322;DHT22;148;51.480;7.208;2022-08-21T00:18:59;21.30;71.50
322;DHT22;148;51.480;7.208;2022-08-21T00:21:25;21.40;71.40
322;DHT22;148;51.480;7.208;2022-08-21T00:23:51;21.40;71.40
322;DHT22;148;51.480;7.208;2022-08-21T00:26:17;21.30;71.30
322;DHT22;148;51.480;7.208;2022-08-21T00:28:43;21.20;70.80
322;DHT22;148;51.480;7.208;2022-08-21T00:31:11;21.20;70.30
322;DHT22;148;51.480;7.208;2022-08-21T00:33:37;21.20;70.10
322;DHT22;148;51.480;7.208;2022-08-21T00:36:03;21.10;70.10
322;DHT22;148;51.480;7.208;2022-08-21T00:38:28;21.20;69.40
322;DHT22;148;51.480;7.208;2022-08-21T00:40:57;21.20;69.10
322;DHT22;148;51.480;7.208;2022-08-21T00:43:27;21.20;68.80
322;DHT22;148;51.480;7.208;2022-08-21T00:45:54;21.20;68.60
322;DHT22;148;51.480;7.208;2022-08-21T00:48:21;21.20;68.30
322;DHT22;148;51.480;7.208;2022-08-21T00:51:00;21.20;68.60
322;DHT22;148;51.480;7.208;2022-08-21T00:53:27;21.10;68.60
322;DHT22;148;51.480;7.208;2022-08-21T00:55:54;21.10;68.50
322;DHT22;148;51.480;7.208;2022-08-21T00:58:20;21.10;68.40
322;DHT22;148;51.480;7.208;2022-08-21T01:00:47;21.00;68.00
322;DHT22;148;51.480;7.208;2022-08-21T01:03:17;20.90;67.30
322;DHT22;148;51.480;7.208;2022-08-21T01:05:44;21.00;67.30
322;DHT22;148;51.480;7.208;2022-08-21T01:08:12;21.10;67.60
322;DHT22;148;51.480;7.208;2022-08-21T01:10:39;21.20;68.10
322;DHT22;148;51.480;7.208;2022-08-21T01:13:08;21.20;68.60
322;DHT22;148;51.480;7.208;2022-08-21T01:15:39;21.10;68.90
322;DHT22;148;51.480;7.208;2022-08-21T01:18:09;21.10;69.10
322;DHT22;148;51.480;7.208;2022-08-21T01:20:37;21.00;68.60
322;DHT22;148;51.480;7.208;2022-08-21T01:23:05;20.90;68.70
322;DHT22;148;51.480;7.208;2022-08-21T01:25:32;20.80;67.60
322;DHT22;148;51.480;7.208;2022-08-21T01:28:04;20.80;66.80
322;DHT22;148;51.480;7.208;2022-08-21T01:30:34;20.90;66.70
322;DHT22;148;51.480;7.208;2022-08-21T01:33:00;21.00;67.50
322;DHT22;148;51.480;7.208;2022-08-21T01:35:26;21.00;68.10
322;DHT22;148;51.480;7.208;2022-08-21T01:37:51;21.10;68.20
322;DHT22;148;51.480;7.208;2022-08-21T01:40:18;21.10;68.40
322;DHT22;148;51.480;7.208;2022-08-21T01:42:44;21.10;68.60
322;DHT22;148;51.480;7.208;2022-08-21T01:45:12;21.10;68.70
322;DHT22;148;51.480;7.208;2022-08-21T01:47:38;21.00;68.80
322;DHT22;148;51.480;7.208;2022-08-21T01:50:07;21.00;68.70
322;DHT22;148;51.480;7.208;2022-08-21T01:52:34;20.90;68.40
322;DHT22;148;51.480;7.208;2022-08-21T01:55:00;20.90;68.40
322;DHT22;148;51.480;7.208;2022-08-21T01:57:25;20.80;67.80
322;DHT22;148;51.480;7.208;2022-08-21T01:59:51;20.80;67.80
322;DHT22;148;51.480;7.208;2022-08-21T02:02:17;20.80;67.90
322;DHT22;148;51.480;7.208;2022-08-21T02:04:43;20.80;67.50
322;DHT22;148;51.480;7.208;2022-08-21T02:07:09;20.70;67.50
322;DHT22;148;51.480;7.208;2022-08-21T02:09:34;20.70;66.90
322;DHT22;148;51.480;7.208;2022-08-21T02:12:00;20.60;65.90
322;DHT22;148;51.480;7.208;2022-08-21T02:14:26;20.70;65.90
322;DHT22;148;51.480;7.208;2022-08-21T02:16:52;20.60;66.00
322;DHT22;148;51.480;7.208;2022-08-21T02:19:18;20.50;64.80
322;DHT22;148;51.480;7.208;2022-08-21T02:21:44;20.50;63.60
322;DHT22;148;51.480;7.208;2022-08-21T02:24:10;20.50;63.30
322;DHT22;148;51.480;7.208;2022-08-21T02:26:36;20.50;63.40
322;DHT22;148;51.480;7.208;2022-08-21T02:29:03;20.40;62.50
322;DHT22;148;51.480;7.208;2022-08-21T02:31:29;20.30;61.50
322;DHT22;148;51.480;7.208;2022-08-21T02:33:54;20.20;60.00
322;DHT22;148;51.480;7.208;2022-08-21T02:36:20;20.30;59.50
322;DHT22;148;51.480;7.208;2022-08-21T02:38:45;20.20;59.10
322;DHT22;148;51.480;7.208;2022-08-21T02:41:14;20.10;58.20
322;DHT22;148;51.480;7.208;2022-08-21T02:43:40;20.10;57.80
322;DHT22;148;51.480;7.208;2022-08-21T02:46:07;20.10;57.30
322;DHT22;148;51.480;7.208;2022-08-21T02:48:33;20.10;56.90
322;DHT22;148;51.480;7.208;2022-08-21T02:51:05;20.00;55.90
322;DHT22;148;51.480;7.208;2022-08-21T02:53:32;20.00;54.00
322;DHT22;148;51.480;7.208;2022-08-21T02:56:01;20.00;54.50
322;DHT22;148;51.480;7.208;2022-08-21T02:58:32;19.90;52.90
322;DHT22;148;51.480;7.208;2022-08-21T03:00:58;19.90;52.50
322;DHT22;148;51.480;7.208;2022-08-21T03:03:26;20.00;51.50
322;DHT22;148;51.480;7.208;2022-08-21T03:05:52;20.10;53.20
322;DHT22;148;51.480;7.208;2022-08-21T03:08:18;20.10;53.70
322;DHT22;148;51.480;7.208;2022-08-21T03:10:47;20.20;54.50
322;DHT22;148;51.480;7.208;2022-08-21T03:13:13;20.30;55.60
322;DHT22;148;51.480;7.208;2022-08-21T03:15:40;20.20;56.10
322;DHT22;148;51.480;7.208;2022-08-21T03:18:07;20.30;56.60
322;DHT22;148;51.480;7.208;2022-08-21T03:20:33;20.20;56.80
322;DHT22;148;51.480;7.208;2022-08-21T03:23:00;20.00;55.90
322;DHT22;148;51.480;7.208;2022-08-21T03:25:28;20.10;55.20
322;DHT22;148;51.480;7.208;2022-08-21T03:27:54;20.00;55.80
322;DHT22;148;51.480;7.208;2022-08-21T03:30:20;19.90;54.10
322;DHT22;148;51.480;7.208;2022-08-21T03:32:48;19.80;53.60
322;DHT22;148;51.480;7.208;2022-08-21T03:35:14;19.70;51.30
322;DHT22;148;51.480;7.208;2022-08-21T03:37:40;19.70;49.30
322;DHT22;148;51.480;7.208;2022-08-21T03:40:08;19.90;49.80
322;DHT22;148;51.480;7.208;2022-08-21T03:42:34;19.90;50.80
322;DHT22;148;51.480;7.208;2022-08-21T03:45:00;19.80;51.20
322;DHT22;148;51.480;7.208;2022-08-21T03:47:26;19.90;51.50
322;DHT22;148;51.480;7.208;2022-08-21T03:49:52;19.70;50.90
322;DHT22;148;51.480;7.208;2022-08-21T03:52:18;19.70;49.30
322;DHT22;148;51.480;7.208;2022-08-21T03:54:44;19.80;48.70
322;DHT22;148;51.480;7.208;2022-08-21T03:57:11;19.80;49.20
322;DHT22;148;51.480;7.208;2022-08-21T03:59:37;19.90;50.00
322;DHT22;148;51.480;7.208;2022-08-21T04:02:05;19.90;50.70
322;DHT22;148;51.480;7.208;2022-08-21T04:04:32;19.90;51.20
322;DHT22;148;51.480;7.208;2022-08-21T04:06:58;19.70;50.80
322;DHT22;148;51.480;7.208;2022-08-21T04:09:25;19.60;48.40
322;DHT22;148;51.480;7.208;2022-08-21T06:32:58;19.00;30.20
322;DHT22;148;51.480;7.208;2022-08-21T06:35:24;18.90;30.60
322;DHT22;148;51.480;7.208;2022-08-21T06:37:54;19.00;30.80
322;DHT22;148;51.480;7.208;2022-08-21T06:40:20;19.30;31.90
322;DHT22;148;51.480;7.208;2022-08-21T06:42:45;19.40;33.20
322;DHT22;148;51.480;7.208;2022-08-21T06:45:11;19.60;34.40
322;DHT22;148;51.480;7.208;2022-08-21T06:47:37;19.80;35.20
322;DHT22;148;51.480;7.208;2022-08-21T06:50:03;19.90;36.70
322;DHT22;148;51.480;7.208;2022-08-21T06:52:30;20.10;37.50
322;DHT22;148;51.480;7.208;2022-08-21T06:54:56;20.20;39.10
322;DHT22;148;51.480;7.208;2022-08-21T06:57:21;20.30;40.50
322;DHT22;148;51.480;7.208;2022-08-21T06:59:47;20.40;40.10
322;DHT22;148;51.480;7.208;2022-08-21T07:02:13;20.40;41.20
322;DHT22;148;51.480;7.208;2022-08-21T07:04:38;20.50;41.10
322;DHT22;148;51.480;7.208;2022-08-21T07:07:04;20.60;41.70
322;DHT22;148;51.480;7.208;2022-08-21T07:09:30;20.50;42.00
322;DHT22;148;51.480;7.208;2022-08-21T07:11:56;20.50;41.80
322;DHT22;148;51.480;7.208;2022-08-21T07:14:22;20.70;41.80
322;DHT22;148;51.480;7.208;2022-08-21T07:16:48;20.80;41.90
322;DHT22;148;51.480;7.208;2022-08-21T07:19:14;20.80;42.40
322;DHT22;148;51.480;7.208;2022-08-21T07:21:40;20.90;43.20
322;DHT22;148;51.480;7.208;2022-08-21T07:24:06;20.90;43.20
322;DHT22;148;51.480;7.208;2022-08-21T07:26:31;20.90;43.30
322;DHT22;148;51.480;7.208;2022-08-21T07:28:57;21.00;43.70
322;DHT22;148;51.480;7.208;2022-08-21T07:31:24;21.00;45.70
322;DHT22;148;51.480;7.208;2022-08-21T07:33:50;20.90;45.30
322;DHT22;148;51.480;7.208;2022-08-21T07:36:16;21.00;45.00
322;DHT22;148;51.480;7.208;2022-08-21T07:38:42;21.00;45.50
322;DHT22;148;51.480;7.208;2022-08-21T07:41:20;21.00;48.10
322;DHT22;148;51.480;7.208;2022-08-21T07:43:47;21.00;50.00
322;DHT22;148;51.480;7.208;2022-08-21T07:46:13;21.00;50.00
322;DHT22;148;51.480;7.208;2022-08-21T07:48:39;21.00;51.80
322;DHT22;148;51.480;7.208;2022-08-21T07:51:10;21.00;52.60
322;DHT22;148;51.480;7.208;2022-08-21T07:53:37;20.90;53.10
322;DHT22;148;51.480;7.208;2022-08-21T07:56:04;21.00;52.80
322;DHT22;148;51.480;7.208;2022-08-21T07:58:31;21.00;53.20
322;DHT22;148;51.480;7.208;2022-08-21T08:00:57;21.10;53.50
322;DHT22;148;51.480;7.208;2022-08-21T08:03:24;21.20;53.30
322;DHT22;148;51.480;7.208;2022-08-21T08:05:50;21.30;53.50
322;DHT22;148;51.480;7.208;2022-08-21T08:08:16;21.40;53.90
322;DHT22;148;51.480;7.208;2022-08-21T08:10:42;21.40;54.30
322;DHT22;148;51.480;7.208;2022-08-21T08:13:08;21.50;53.90
322;DHT22;148;51.480;7.208;2022-08-21T08:15:34;21.40;54.50
322;DHT22;148;51.480;7.208;2022-08-21T08:17:59;21.40;54.20
322;DHT22;148;51.480;7.208;2022-08-21T08:20:26;21.50;53.90
322;DHT22;148;51.480;7.208;2022-08-21T08:22:52;21.50;53.90
322;DHT22;148;51.480;7.208;2022-08-21T08:25:19;21.50;54.10
322;DHT22;148;51.480;7.208;2022-08-21T08:27:45;21.60;54.40
322;DHT22;148;51.480;7.208;2022-08-21T08:30:13;21.60;54.40
322;DHT22;148;51.480;7.208;2022-08-21T08:32:39;21.60;54.20
322;DHT22;148;51.480;7.208;2022-08-21T08:35:06;21.70;54.50
322;DHT22;148;51.480;7.208;2022-08-21T08:37:33;21.80;54.60
322;DHT22;148;51.480;7.208;2022-08-21T08:39:59;21.90;55.00
322;DHT22;148;51.480;7.208;2022-08-21T08:42:32;21.90;55.20
322;DHT22;148;51.480;7.208;2022-08-21T08:45:19;21.90;55.30
322;DHT22;148;51.480;7.208;2022-08-21T08:47:59;21.90;55.40
322;DHT22;148;51.480;7.208;2022-08-21T08:50:47;22.00;55.30
322;DHT22;148;51.480;7.208;2022-08-21T08:53:37;22.10;55.40
322;DHT22;148;51.480;7.208;2022-08-21T08:56:07;22.10;55.70
322;DHT22;148;51.480;7.208;2022-08-21T08:58:37;22.10;55.50
322;DHT22;148;51.480;7.208;2022-08-21T09:01:16;22.10;55.70
322;DHT22;148;51.480;7.208;2022-08-21T09:03:43;22.20;55.60
322;DHT22;148;51.480;7.208;2022-08-21T09:06:21;22.20;55.80
322;DHT22;148;51.480;7.208;2022-08-21T09:14:39;22.40;55.70
322;DHT22;148;51.480;7.208;2022-08-21T09:28:25;22.70;56.60
322;DHT22;148;51.480;7.208;2022-08-21T09:30:54;22.70;56.80
322;DHT22;148;51.480;7.208;2022-08-21T09:33:21;22.60;56.80
322;DHT22;148;51.480;7.208;2022-08-21T09:35:52;22.60;56.90
322;DHT22;148;51.480;7.208;2022-08-21T09:38:31;22.60;57.00
322;DHT22;148;51.480;7.208;2022-08-21T09:41:09;22.60;57.10
322;DHT22;148;51.480;7.208;2022-08-21T09:43:37;22.50;57.00
322;DHT22;148;51.480;7.208;2022-08-21T09:46:21;22.60;57.10
322;DHT22;148;51.480;7.208;2022-08-21T09:48:49;22.70;57.10
322;DHT22;148;51.480;7.208;2022-08-21T09:51:21;22.70;57.20
322;DHT22;148;51.480;7.208;2022-08-21T09:53:54;22.70;57.10
322;DHT22;148;51.480;7.208;2022-08-21T09:56:27;22.80;57.10
322;DHT22;148;51.480;7.208;2022-08-21T09:59:31;22.80;57.20
322;DHT22;148;51.480;7.208;2022-08-21T10:02:03;22.90;57.20
322;DHT22;148;51.480;7.208;2022-08-21T10:04:50;23.00;57.20
322;DHT22;148;51.480;7.208;2022-08-21T10:07:20;23.10;57.20
322;DHT22;148;51.480;7.208;2022-08-21T10:09:57;23.10;57.10
322;DHT22;148;51.480;7.208;2022-08-21T10:12:30;23.20;57.50
322;DHT22;148;51.480;7.208;2022-08-21T10:18:02;23.30;58.00
322;DHT22;148;51.480;7.208;2022-08-21T10:20:45;23.40;57.80
322;DHT22;148;51.480;7.208;2022-08-21T10:29:09;23.30;58.10
322;DHT22;148;51.480;7.208;2022-08-21T10:31:50;23.40;58.30
322;DHT22;148;51.480;7.208;2022-08-21T10:37:30;23.50;57.80
322;DHT22;148;51.480;7.208;2022-08-21T10:40:27;23.60;57.60
322;DHT22;148;51.480;7.208;2022-08-21T10:48:36;23.60;56.90
322;DHT22;148;51.480;7.208;2022-08-21T10:54:26;23.70;56.60
322;DHT22;148;51.480;7.208;2022-08-21T10:57:09;23.80;56.60
322;DHT22;148;51.480;7.208;2022-08-21T10:59:50;23.80;56.70
322;DHT22;148;51.480;7.208;2022-08-21T11:02:33;23.90;57.30
322;DHT22;148;51.480;7.208;2022-08-21T11:05:46;23.90;56.20
322;DHT22;148;51.480;7.208;2022-08-21T11:07:55;24.00;56.70
322;DHT22;148;51.480;7.208;2022-08-21T11:10:27;24.10;56.40
322;DHT22;148;51.480;7.208;2022-08-21T11:13:11;24.10;56.10
322;DHT22;148;51.480;7.208;2022-08-21T11:18:31;24.20;54.90
322;DHT22;148;51.480;7.208;2022-08-21T11:23:48;24.20;55.30
322;DHT22;148;51.480;7.208;2022-08-21T11:26:25;24.30;55.60
322;DHT22;148;51.480;7.208;2022-08-21T11:29:03;24.40;55.80
322;DHT22;148;51.480;7.208;2022-08-21T11:34:32;24.50;53.60
322;DHT22;148;51.480;7.208;2022-08-21T11:37:21;24.50;53.00
322;DHT22;148;51.480;7.208;2022-08-21T11:40:03;24.60;53.60
322;DHT22;148;51.480;7.208;2022-08-21T11:45:22;24.80;54.20
322;DHT22;148;51.480;7.208;2022-08-21T11:48:15;24.80;54.20
322;DHT22;148;51.480;7.208;2022-08-21T11:50:46;24.90;54.10
322;DHT22;148;51.480;7.208;2022-08-21T11:53:20;25.10;53.60
322;DHT22;148;51.480;7.208;2022-08-21T11:56:15;25.20;53.90
322;DHT22;148;51.480;7.208;2022-08-21T11:58:48;25.30;54.10
322;DHT22;148;51.480;7.208;2022-08-21T12:01:17;25.20;52.40
322;DHT22;148;51.480;7.208;2022-08-21T12:06:39;25.20;51.90
322;DHT22;148;51.480;7.208;2022-08-21T12:14:43;25.30;50.70
322;DHT22;148;51.480;7.208;2022-08-21T12:17:19;25.20;51.00
322;DHT22;148;51.480;7.208;2022-08-21T12:19:45;25.00;51.30
322;DHT22;148;51.480;7.208;2022-08-21T12:22:21;25.00;51.80
322;DHT22;148;51.480;7.208;2022-08-21T12:24:50;25.10;52.60
322;DHT22;148;51.480;7.208;2022-08-21T12:27:28;25.10;52.50
322;DHT22;148;51.480;7.208;2022-08-21T12:29:56;25.20;51.70
322;DHT22;148;51.480;7.208;2022-08-21T12:32:45;25.20;51.00
322;DHT22;148;51.480;7.208;2022-08-21T12:35:26;25.30;50.60
322;DHT22;148;51.480;7.208;2022-08-21T12:38:02;25.30;51.00
322;DHT22;148;51.480;7.208;2022-08-21T12:40:41;25.30;51.20
322;DHT22;148;51.480;7.208;2022-08-21T12:43:14;25.30;51.10
322;DHT22;148;51.480;7.208;2022-08-21T12:45:45;25.40;50.60
322;DHT22;148;51.480;7.208;2022-08-21T12:50:54;25.30;49.80
322;DHT22;148;51.480;7.208;2022-08-21T12:53:52;25.20;50.10
322;DHT22;148;51.480;7.208;2022-08-21T12:56:23;25.30;50.40
322;DHT22;148;51.480;7.208;2022-08-21T12:58:55;25.30;50.80
322;DHT22;148;51.480;7.208;2022-08-21T13:03:59;25.60;50.40
322;DHT22;148;51.480;7.208;2022-08-21T13:06:29;25.60;49.70
322;DHT22;148;51.480;7.208;2022-08-21T13:09:03;25.70;49.50
322;DHT22;148;51.480;7.208;2022-08-21T13:11:29;25.80;49.90
322;DHT22;148;51.480;7.208;2022-08-21T13:13:57;25.80;48.40
322;DHT22;148;51.480;7.208;2022-08-21T13:16:27;25.90;48.30
322;DHT22;148;51.480;7.208;2022-08-21T13:19:00;26.00;48.60
322;DHT22;148;51.480;7.208;2022-08-21T13:21:31;25.90;47.50
322;DHT22;148;51.480;7.208;2022-08-21T13:24:20;25.80;47.50
322;DHT22;148;51.480;7.208;2022-08-21T13:26:47;25.90;48.20
322;DHT22;148;51.480;7.208;2022-08-21T13:29:15;26.00;48.10
322;DHT22;148;51.480;7.208;2022-08-21T13:31:50;26.10;47.90
322;DHT22;148;51.480;7.208;2022-08-21T13:34:18;26.20;48.00
322;DHT22;148;51.480;7.208;2022-08-21T13:36:45;26.20;47.80
322;DHT22;148;51.480;7.208;2022-08-21T13:39:15;26.20;47.50
322;DHT22;148;51.480;7.208;2022-08-21T13:41:44;26.20;47.40
322;DHT22;148;51.480;7.208;2022-08-21T13:44:21;26.30;47.40
322;DHT22;148;51.480;7.208;2022-08-21T13:46:48;26.30;48.10
322;DHT22;148;51.480;7.208;2022-08-21T13:49:18;26.50;47.90
322;DHT22;148;51.480;7.208;2022-08-21T13:51:45;26.60;47.10
322;DHT22;148;51.480;7.208;2022-08-21T13:54:36;26.70;46.90
322;DHT22;148;51.480;7.208;2022-08-21T13:57:03;26.90;46.80
322;DHT22;148;51.480;7.208;2022-08-21T13:59:34;27.10;46.80
322;DHT22;148;51.480;7.208;2022-08-21T14:02:21;27.70;45.50
322;DHT22;148;51.480;7.208;2022-08-21T14:04:55;28.50;42.70
322;DHT22;148;51.480;7.208;2022-08-21T14:09:52;29.90;39.90
322;DHT22;148;51.480;7.208;2022-08-21T14:12:34;30.60;38.80
322;DHT22;148;51.480;7.208;2022-08-21T14:15:04;31.40;37.30
322;DHT22;148;51.480;7.208;2022-08-21T14:17:37;31.90;36.50
322;DHT22;148;51.480;7.208;2022-08-21T14:20:09;32.50;35.00
322;DHT22;148;51.480;7.208;2022-08-21T14:22:40;33.00;34.00
322;DHT22;148;51.480;7.208;2022-08-21T14:28:14;33.50;33.00
322;DHT22;148;51.480;7.208;2022-08-21T14:30:43;33.10;33.60
322;DHT22;148;51.480;7.208;2022-08-21T14:33:11;32.70;33.70
322;DHT22;148;51.480;7.208;2022-08-21T14:35:40;32.30;34.50
322;DHT22;148;51.480;7.208;2022-08-21T14:38:34;31.70;34.60
322;DHT22;148;51.480;7.208;2022-08-21T14:41:06;30.60;35.90
322;DHT22;148;51.480;7.208;2022-08-21T14:43:33;29.90;38.10
322;DHT22;148;51.480;7.208;2022-08-21T14:46:00;29.50;38.70
322;DHT22;148;51.480;7.208;2022-08-21T14:48:27;29.10;39.70
322;DHT22;148;51.480;7.208;2022-08-21T14:50:52;28.70;40.60
322;DHT22;148;51.480;7.208;2022-08-21T14:53:18;28.30;40.90
322;DHT22;148;51.480;7.208;2022-08-21T14:55:47;28.20;40.80
322;DHT22;148;51.480;7.208;2022-08-21T14:58:36;28.00;41.60
322;DHT22;148;51.480;7.208;2022-08-21T15:01:04;27.70;40.60
322;DHT22;148;51.480;7.208;2022-08-21T15:03:37;27.50;41.00
322;DHT22;148;51.480;7.208;2022-08-21T15:06:06;27.50;41.10
322;DHT22;148;51.480;7.208;2022-08-21T15:08:32;27.40;41.10
322;DHT22;148;51.480;7.208;2022-08-21T15:11:00;27.40;41.40
322;DHT22;148;51.480;7.208;2022-08-21T15:13:27;27.40;41.10
322;DHT22;148;51.480;7.208;2022-08-21T15:15:52;27.50;41.30
322;DHT22;148;51.480;7.208;2022-08-21T15:18:20;27.80;41.40
322;DHT22;148;51.480;7.208;2022-08-21T15:20:45;27.90;41.60
322;DHT22;148;51.480;7.208;2022-08-21T15:23:11;28.00;41.70
322;DHT22;148;51.480;7.208;2022-08-21T15:25:41;28.20;40.90
322;DHT22;148;51.480;7.208;2022-08-21T15:28:07;28.20;41.30
322;DHT22;148;51.480;7.208;2022-08-21T15:30:34;28.20;41.70
322;DHT22;148;51.480;7.208;2022-08-21T15:32:59;28.40;41.10
322;DHT22;148;51.480;7.208;2022-08-21T15:35:25;29.00;39.30
322;DHT22;148;51.480;7.208;2022-08-21T15:37:54;29.20;39.30
322;DHT22;148;51.480;7.208;2022-08-21T15:40:19;29.60;38.30
322;DHT22;148;51.480;7.208;2022-08-21T15:42:45;29.70;39.60
322;DHT22;148;51.480;7.208;2022-08-21T15:45:12;29.60;39.80
322;DHT22;148;51.480;7.208;2022-08-21T15:47:43;29.50;39.50
322;DHT22;148;51.480;7.208;2022-08-21T15:50:10;29.50;40.50
322;DHT22;148;51.480;7.208;2022-08-21T15:52:36;29.40;41.00
322;DHT22;148;51.480;7.208;2022-08-21T15:55:04;29.30;40.80
322;DHT22;148;51.480;7.208;2022-08-21T15:57:30;28.90;41.20
322;DHT22;148;51.480;7.208;2022-08-21T16:00:03;28.80;41.10
322;DHT22;148;51.480;7.208;2022-08-21T16:02:36;28.90;40.60
322;DHT22;148;51.480;7.208;2022-08-21T16:05:03;28.50;41.00
322;DHT22;148;51.480;7.208;2022-08-21T16:07:28;28.70;41.10
322;DHT22;148;51.480;7.208;2022-08-21T16:09:54;29.80;39.20
322;DHT22;148;51.480;7.208;2022-08-21T16:12:29;30.80;37.40
322;DHT22;148;51.480;7.208;2022-08-21T16:14:59;30.90;37.10
322;DHT22;148;51.480;7.208;2022-08-21T16:17:29;30.90;37.10
322;DHT22;148;51.480;7.208;2022-08-21T16:19:56;30.70;37.70
322;DHT22;148;51.480;7.208;2022-08-21T16:22:22;30.40;38.40
322;DHT22;148;51.480;7.208;2022-08-21T16:24:48;30.20;38.20
322;DHT22;148;51.480;7.208;2022-08-21T16:27:13;30.00;38.40
322;DHT22;148;51.480;7.208;2022-08-21T16:29:42;29.70;39.00
322;DHT22;148;51.480;7.208;2022-08-21T16:32:08;29.60;39.00
322;DHT22;148;51.480;7.208;2022-08-21T16:34:35;29.20;40.10
322;DHT22;148;51.480;7.208;2022-08-21T16:37:00;29.20;40.40
322;DHT22;148;51.480;7.208;2022-08-21T16:39:26;29.00;40.50
322;DHT22;148;51.480;7.208;2022-08-21T16:41:53;29.00;40.60
322;DHT22;148;51.480;7.208;2022-08-21T16:44:20;28.70;41.10
322;DHT22;148;51.480;7.208;2022-08-21T16:46:47;28.70;41.50
322;DHT22;148;51.480;7.208;2022-08-21T16:49:13;28.70;41.40
322;DHT22;148;51.480;7.208;2022-08-21T16:51:39;28.70;41.10
322;DHT22;148;51.480;7.208;2022-08-21T16:54:05;28.50;41.40
322;DHT22;148;51.480;7.208;2022-08-21T16:56:31;28.10;42.40
322;DHT22;148;51.480;7.208;2022-08-21T16:58:57;28.00;42.50
322;DHT22;148;51.480;7.208;2022-08-21T17:01:28;27.80;42.80
322;DHT22;148;51.480;7.208;2022-08-21T17:03:55;27.50;43.10
322;DHT22;148;51.480;7.208;2022-08-21T17:06:22;27.40;43.50
322;DHT22;148;51.480;7.208;2022-08-21T17:08:48;27.30;43.60
322;DHT22;148;51.480;7.208;2022-08-21T17:11:34;27.20;43.90
322;DHT22;148;51.480;7.208;2022-08-21T17:14:37;27.00;44.10
322;DHT22;148;51.480;7.208;2022-08-21T17:16:56;26.70;44.60
322;DHT22;148;51.480;7.208;2022-08-21T17:19:22;26.60;45.20
322;DHT22;148;51.480;7.208;2022-08-21T17:21:48;26.60;45.50
322;DHT22;148;51.480;7.208;2022-08-21T17:24:13;26.40;45.60
322;DHT22;148;51.480;7.208;2022-08-21T17:26:41;26.30;45.90
322;DHT22;148;51.480;7.208;2022-08-21T17:29:07;26.10;46.00
322;DHT22;148;51.480;7.208;2022-08-21T17:31:35;26.10;46.00
322;DHT22;148;51.480;7.208;2022-08-21T17:34:02;26.10;45.80
322;DHT22;148;51.480;7.208;2022-08-21T17:36:29;26.00;45.60
322;DHT22;148;51.480;7.208;2022-08-21T17:38:56;26.00;45.50
322;DHT22;148;51.480;7.208;2022-08-21T17:41:23;25.90;45.90
322;DHT22;148;51.480;7.208;2022-08-21T17:43:49;25.90;45.80
322;DHT22;148;51.480;7.208;2022-08-21T17:46:27;25.90;45.70
322;DHT22;148;51.480;7.208;2022-08-21T17:48:53;26.00;45.80
322;DHT22;148;51.480;7.208;2022-08-21T17:51:19;26.00;45.60
322;DHT22;148;51.480;7.208;2022-08-21T17:53:45;25.90;45.10
322;DHT22;148;51.480;7.208;2022-08-21T17:56:16;25.70;45.20
322;DHT22;148;51.480;7.208;2022-08-21T17:58:47;25.70;45.30
322;DHT22;148;51.480;7.208;2022-08-21T18:01:13;25.80;45.00
322;DHT22;148;51.480;7.208;2022-08-21T18:03:39;25.60;45.10
322;DHT22;148;51.480;7.208;2022-08-21T18:06:05;25.60;45.20
322;DHT22;148;51.480;7.208;2022-08-21T18:08:32;25.50;45.00
322;DHT22;148;51.480;7.208;2022-08-21T18:10:58;25.50;45.40
322;DHT22;148;51.480;7.208;2022-08-21T18:13:27;25.40;45.40
322;DHT22;148;51.480;7.208;2022-08-21T18:15:54;25.40;45.50
322;DHT22;148;51.480;7.208;2022-08-21T18:18:21;25.50;45.50
322;DHT22;148;51.480;7.208;2022-08-21T18:20:47;25.40;45.70
322;DHT22;148;51.480;7.208;2022-08-21T18:23:13;25.40;45.80
322;DHT22;148;51.480;7.208;2022-08-21T18:25:42;25.30;46.10
322;DHT22;148;51.480;7.208;2022-08-21T18:28:10;25.30;46.30
322;DHT22;148;51.480;7.208;2022-08-21T18:30:41;25.30;46.30
322;DHT22;148;51.480;7.208;2022-08-21T18:33:08;25.20;46.40
